Time;durP1;ratioP1;P1;durP2;ratioP2;P2;SDS_P1;SDS_P2;PMS_P1;PMS_P2;Temp;Humidity;BMP_temperature;BMP_pressure;BME280_temperature;BME280_humidity;BME280_pressure;Samples;Min_cycle;Max_cycle;Signal;HPM_P1;HPM_P2
2022/03/16 00:00:04;;;;;;;0.10;0.10;;;;;;;;;;4980211;28;20037;-80
2022/03/16 00:02:30;;;;;;;0.82;0.70;;;;;;;;;;4980666;28;25598;-81
2022/03/16 00:04:57;;;;;;;0.30;0.30;;;;;;;;;;4983514;28;20030;-81
2022/03/16 00:07:23;;;;;;;4.57;1.65;;;;;;;;;;4981681;28;20046;-80
2022/03/16 00:09:49;;;;;;;0.20;0.20;;;;;;;;;;4981021;28;20246;-79
2022/03/16 00:12:16;;;;;;;1.58;1.00;;;;;;;;;;4977929;28;20126;-79
2022/03/16 00:14:42;;;;;;;0.10;0.10;;;;;;;;;;4982508;28;20030;-80
2022/03/16 00:17:09;;;;;;;0.40;0.40;;;;;;;;;;4984328;28;20088;-80
2022/03/16 00:19:35;;;;;;;0.45;0.45;;;;;;;;;;4982416;28;20045;-79
2022/03/16 00:22:02;;;;;;;0.00;0.00;;;;;;;;;;4978820;28;20037;-79
2022/03/16 00:24:28;;;;;;;0.25;0.25;;;;;;;;;;4979091;28;20034;-79
2022/03/16 00:26:54;;;;;;;0.77;0.77;;;;;;;;;;4979689;28;20797;-79
2022/03/16 00:29:20;;;;;;;0.20;0.20;;;;;;;;;;4981869;28;20049;-79
2022/03/16 00:31:47;;;;;;;1.03;0.37;;;;;;;;;;4975646;28;20386;-80
2022/03/16 00:34:13;;;;;;;0.63;0.50;;;;;;;;;;4981158;28;20285;-80
2022/03/16 00:36:39;;;;;;;0.57;0.50;;;;;;;;;;4981990;28;20030;-79
2022/03/16 00:39:05;;;;;;;0.68;0.55;;;;;;;;;;4980944;28;20038;-80
2022/03/16 00:41:33;;;;;;;0.38;0.38;;;;;;;;;;4979679;28;20688;-79
2022/03/16 00:44:00;;;;;;;0.10;0.10;;;;;;;;;;4977915;28;20096;-80
2022/03/16 00:46:26;;;;;;;2.58;0.60;;;;;;;;;;4977803;28;20346;-78
2022/03/16 00:48:52;;;;;;;0.23;0.23;;;;;;;;;;4978801;28;20042;-79
2022/03/16 00:51:18;;;;;;;1.10;0.75;;;;;;;;;;4979856;28;20601;-79
2022/03/16 00:53:45;;;;;;;0.23;0.23;;;;;;;;;;4979684;28;20070;-79
2022/03/16 00:56:12;;;;;;;0.05;0.05;;;;;;;;;;4984500;28;20026;-84
2022/03/16 00:58:38;;;;;;;1.25;0.63;;;;;;;;;;4982809;28;20420;-84
2022/03/16 01:01:05;;;;;;;2.92;1.13;;;;;;;;;;4980538;28;20705;-85
2022/03/16 01:03:31;;;;;;;0.82;0.30;;;;;;;;;;4976757;28;20589;-84
2022/03/16 01:05:57;;;;;;;0.13;0.13;;;;;;;;;;4986428;28;20023;-86
2022/03/16 01:08:23;;;;;;;0.17;0.17;;;;;;;;;;4977522;28;20305;-88
2022/03/16 01:10:49;;;;;;;0.20;0.20;;;;;;;;;;4980514;28;20435;-87
2022/03/16 01:13:16;;;;;;;0.93;0.93;;;;;;;;;;4977517;28;20290;-88
2022/03/16 01:15:42;;;;;;;9.13;1.65;;;;;;;;;;4978809;28;20026;-86
2022/03/16 01:18:08;;;;;;;0.20;0.20;;;;;;;;;;4980025;28;20030;-87
2022/03/16 01:20:34;;;;;;;8.35;0.95;;;;;;;;;;4978731;28;20113;-87
2022/03/16 01:23:00;;;;;;;0.30;0.30;;;;;;;;;;4980441;28;20960;-87
2022/03/16 01:25:26;;;;;;;0.10;0.10;;;;;;;;;;4979308;28;20045;-87
2022/03/16 01:27:52;;;;;;;0.30;0.30;;;;;;;;;;4979743;28;20053;-87
2022/03/16 01:30:18;;;;;;;0.53;0.40;;;;;;;;;;4980929;28;20560;-86
2022/03/16 01:32:44;;;;;;;0.67;0.50;;;;;;;;;;4979331;28;20724;-87
2022/03/16 01:35:10;;;;;;;28.47;1.80;;;;;;;;;;4980585;28;20030;-83
2022/03/16 01:37:37;;;;;;;1.13;0.35;;;;;;;;;;4981017;28;20036;-81
2022/03/16 01:40:05;;;;;;;0.55;0.55;;;;;;;;;;4982213;28;20034;-81
2022/03/16 01:42:31;;;;;;;5.35;1.35;;;;;;;;;;4979141;28;20034;-82
2022/03/16 01:44:57;;;;;;;0.20;0.20;;;;;;;;;;4978077;28;20035;-80
2022/03/16 01:47:24;;;;;;;0.32;0.32;;;;;;;;;;4979134;28;20029;-83
2022/03/16 01:49:50;;;;;;;0.40;0.40;;;;;;;;;;4980413;28;20493;-83
2022/03/16 01:52:21;;;;;;;0.13;0.13;;;;;;;;;;4982174;28;20034;-82
2022/03/16 01:54:48;;;;;;;0.30;0.30;;;;;;;;;;4983532;28;20034;-83
2022/03/16 01:57:15;;;;;;;1.48;1.17;;;;;;;;;;4981554;28;20052;-83
2022/03/16 01:59:42;;;;;;;1.90;1.25;;;;;;;;;;4982648;28;20038;-82
2022/03/16 02:02:08;;;;;;;;;;;;;;;;;;4985143;28;20052;-82
2022/03/16 02:04:34;;;;;;;1.27;0.68;;;;;;;;;;4981221;28;20392;-82
2022/03/16 02:07:00;;;;;;;0.93;0.82;;;;;;;;;;4981207;28;20045;-81
2022/03/16 02:09:27;;;;;;;0.40;0.37;;;;;;;;;;4983814;28;20601;-81
2022/03/16 02:11:53;;;;;;;2.90;0.63;;;;;;;;;;4981354;28;20274;-80
2022/03/16 02:14:19;;;;;;;0.60;0.60;;;;;;;;;;4981873;28;20049;-81
2022/03/16 02:16:46;;;;;;;4.07;0.57;;;;;;;;;;4982442;28;20082;-80
2022/03/16 02:19:12;;;;;;;0.22;0.20;;;;;;;;;;4981662;28;20696;-80
2022/03/16 02:21:38;;;;;;;0.10;0.10;;;;;;;;;;4984144;28;20113;-80
2022/03/16 02:24:05;;;;;;;3.20;1.35;;;;;;;;;;4980886;28;20289;-81
2022/03/16 02:26:31;;;;;;;0.17;0.17;;;;;;;;;;4981569;28;20557;-81
2022/03/16 02:28:57;;;;;;;1.80;1.10;;;;;;;;;;4983012;28;20110;-81
2022/03/16 02:31:24;;;;;;;0.20;0.20;;;;;;;;;;4980777;28;20388;-80
2022/03/16 02:33:50;;;;;;;0.50;0.50;;;;;;;;;;4980455;28;20038;-83
2022/03/16 02:36:17;;;;;;;0.10;0.10;;;;;;;;;;4982212;28;20026;-83
2022/03/16 02:38:43;;;;;;;0.30;0.30;;;;;;;;;;4980096;28;20035;-83
2022/03/16 02:41:09;;;;;;;0.20;0.20;;;;;;;;;;4981969;28;20057;-83
2022/03/16 02:43:35;;;;;;;2.13;1.70;;;;;;;;;;4982009;28;20290;-83
2022/03/16 02:46:01;;;;;;;0.17;0.17;;;;;;;;;;4981103;28;21951;-83
2022/03/16 02:48:27;;;;;;;2.07;0.53;;;;;;;;;;4972491;28;20735;-83
2022/03/16 02:50:54;;;;;;;1.60;1.38;;;;;;;;;;4980377;28;21039;-82
2022/03/16 02:53:20;;;;;;;3.15;1.90;;;;;;;;;;4981298;28;20117;-82
2022/03/16 02:55:46;;;;;;;3.60;0.87;;;;;;;;;;4982664;28;20105;-84
2022/03/16 02:58:13;;;;;;;1.55;1.23;;;;;;;;;;4984919;28;20022;-85
2022/03/16 03:00:39;;;;;;;0.30;0.30;;;;;;;;;;4983035;28;20038;-86
2022/03/16 03:03:05;;;;;;;0.30;0.30;;;;;;;;;;4982900;28;20030;-86
2022/03/16 03:05:31;;;;;;;0.83;0.30;;;;;;;;;;4983933;28;25222;-85
2022/03/16 03:07:57;;;;;;;0.17;0.17;;;;;;;;;;4981849;28;20133;-84
2022/03/16 03:10:24;;;;;;;0.38;0.38;;;;;;;;;;4978270;28;20050;-84
2022/03/16 03:12:50;;;;;;;0.63;0.63;;;;;;;;;;4980269;28;20038;-84
2022/03/16 03:15:16;;;;;;;0.87;0.80;;;;;;;;;;4981483;28;20327;-87
2022/03/16 03:17:42;;;;;;;11.30;3.13;;;;;;;;;;4983162;28;20038;-87
2022/03/16 03:20:09;;;;;;;3.22;1.33;;;;;;;;;;4979142;28;20041;-82
2022/03/16 03:22:36;;;;;;;0.98;0.52;;;;;;;;;;4980863;28;20034;-83
2022/03/16 03:25:02;;;;;;;0.55;0.40;;;;;;;;;;4980334;28;20030;-82
2022/03/16 03:27:30;;;;;;;0.75;0.63;;;;;;;;;;4982395;28;20088;-86
2022/03/16 03:29:56;;;;;;;0.50;0.50;;;;;;;;;;4982194;28;20486;-87
2022/03/16 03:32:23;;;;;;;3.20;1.58;;;;;;;;;;4984503;28;20041;-85
2022/03/16 03:34:51;;;;;;;1.88;0.98;;;;;;;;;;4973362;28;20334;-83
2022/03/16 03:37:17;;;;;;;0.40;0.40;;;;;;;;;;4982140;28;20058;-82
2022/03/16 03:39:44;;;;;;;3.00;0.77;;;;;;;;;;4980400;28;20094;-83
2022/03/16 03:42:10;;;;;;;0.98;0.82;;;;;;;;;;4980576;28;20046;-81
2022/03/16 03:44:37;;;;;;;0.43;0.43;;;;;;;;;;4980516;28;20445;-82
2022/03/16 03:47:04;;;;;;;0.10;0.10;;;;;;;;;;4981603;28;20145;-82
2022/03/16 03:49:31;;;;;;;1.77;0.38;;;;;;;;;;4980337;28;20073;-82
2022/03/16 03:51:57;;;;;;;0.10;0.10;;;;;;;;;;4980995;28;20026;-82
2022/03/16 03:54:23;;;;;;;0.00;0.00;;;;;;;;;;4980836;28;20034;-83
2022/03/16 03:56:49;;;;;;;1.67;1.15;;;;;;;;;;4982725;28;20041;-82
2022/03/16 03:59:15;;;;;;;0.67;0.67;;;;;;;;;;4981095;28;20033;-83
2022/03/16 04:01:41;;;;;;;0.10;0.10;;;;;;;;;;4978366;28;20413;-83
2022/03/16 04:04:07;;;;;;;0.17;0.17;;;;;;;;;;4982644;28;20044;-83
2022/03/16 04:06:34;;;;;;;1.35;1.25;;;;;;;;;;4980743;28;20421;-82
2022/03/16 04:09:00;;;;;;;1.65;0.80;;;;;;;;;;4979674;28;20047;-83
2022/03/16 04:11:26;;;;;;;0.40;0.40;;;;;;;;;;4974052;28;20030;-83
2022/03/16 04:13:52;;;;;;;0.57;0.57;;;;;;;;;;4977545;28;20658;-83
2022/03/16 04:16:18;;;;;;;0.45;0.45;;;;;;;;;;4975199;28;20084;-82
2022/03/16 04:18:44;;;;;;;0.10;0.10;;;;;;;;;;4980573;28;20030;-80
2022/03/16 04:21:10;;;;;;;0.37;0.37;;;;;;;;;;4980108;28;20046;-83
2022/03/16 04:23:36;;;;;;;1.10;1.00;;;;;;;;;;4978177;28;20757;-83
2022/03/16 04:26:02;;;;;;;0.50;0.50;;;;;;;;;;4981669;28;20504;-83
2022/03/16 04:28:28;;;;;;;0.83;0.83;;;;;;;;;;4978877;28;20046;-83
2022/03/16 04:30:54;;;;;;;0.33;0.33;;;;;;;;;;4979396;28;20364;-83
2022/03/16 04:33:20;;;;;;;0.40;0.40;;;;;;;;;;4975567;28;20038;-83
2022/03/16 04:35:46;;;;;;;2.13;1.10;;;;;;;;;;4979878;28;20026;-82
2022/03/16 04:38:12;;;;;;;0.70;0.52;;;;;;;;;;4979978;28;20041;-83
2022/03/16 04:40:38;;;;;;;0.27;0.27;;;;;;;;;;4979052;28;20041;-81
2022/03/16 04:43:04;;;;;;;0.52;0.47;;;;;;;;;;4979983;28;20282;-81
2022/03/16 04:45:30;;;;;;;0.20;0.20;;;;;;;;;;4978714;28;20031;-81
2022/03/16 04:47:56;;;;;;;0.90;0.90;;;;;;;;;;4975931;28;20034;-83
2022/03/16 04:50:23;;;;;;;1.10;0.90;;;;;;;;;;4974633;28;20040;-82
2022/03/16 04:52:49;;;;;;;1.08;0.80;;;;;;;;;;4981164;28;20702;-82
2022/03/16 04:55:16;;;;;;;0.20;0.20;;;;;;;;;;4979923;28;20030;-82
2022/03/16 04:57:42;;;;;;;0.52;0.43;;;;;;;;;;4978280;28;20037;-82
2022/03/16 05:00:09;;;;;;;0.10;0.10;;;;;;;;;;4980067;28;20058;-83
2022/03/16 05:02:37;;;;;;;1.20;1.02;;;;;;;;;;4980175;28;20149;-83
2022/03/16 05:05:03;;;;;;;22.95;1.63;;;;;;;;;;4981746;28;20034;-83
2022/03/16 05:07:29;;;;;;;0.28;0.28;;;;;;;;;;4977470;28;20065;-79
2022/03/16 05:09:55;;;;;;;0.10;0.10;;;;;;;;;;4979859;28;20112;-79
2022/03/16 05:12:21;;;;;;;2.42;2.03;;;;;;;;;;4974452;28;20109;-78
2022/03/16 05:14:47;;;;;;;0.10;0.10;;;;;;;;;;4976436;28;20022;-82
2022/03/16 05:17:13;;;;;;;0.50;0.50;;;;;;;;;;4982144;28;20042;-83
2022/03/16 05:19:39;;;;;;;0.40;0.40;;;;;;;;;;4981727;28;20038;-84
2022/03/16 05:22:05;;;;;;;0.43;0.43;;;;;;;;;;4976988;28;20027;-84
2022/03/16 05:24:32;;;;;;;0.57;0.40;;;;;;;;;;4978895;28;20510;-82
2022/03/16 05:26:58;;;;;;;0.20;0.20;;;;;;;;;;4981344;28;20690;-82
2022/03/16 05:29:24;;;;;;;1.33;0.93;;;;;;;;;;4985788;28;20421;-83
2022/03/16 05:31:50;;;;;;;0.60;0.60;;;;;;;;;;4985212;28;20818;-82
2022/03/16 05:34:16;;;;;;;0.13;0.13;;;;;;;;;;4985147;28;20036;-82
2022/03/16 05:36:42;;;;;;;12.48;0.57;;;;;;;;;;4981073;28;20027;-80
2022/03/16 05:39:08;;;;;;;0.30;0.30;;;;;;;;;;4982774;28;20121;-79
2022/03/16 05:41:34;;;;;;;0.68;0.68;;;;;;;;;;4985102;28;20432;-80
2022/03/16 05:44:00;;;;;;;0.57;0.57;;;;;;;;;;4982916;28;20143;-81
2022/03/16 05:46:26;;;;;;;0.30;0.30;;;;;;;;;;4983786;28;20110;-81
2022/03/16 05:48:52;;;;;;;0.73;0.73;;;;;;;;;;4985947;28;20042;-81
2022/03/16 05:51:18;;;;;;;0.40;0.40;;;;;;;;;;4982485;28;20030;-79
2022/03/16 05:53:44;;;;;;;0.20;0.20;;;;;;;;;;4981247;28;20469;-79
2022/03/16 05:56:10;;;;;;;0.83;0.70;;;;;;;;;;4982442;28;20102;-82
2022/03/16 05:58:36;;;;;;;9.32;1.85;;;;;;;;;;4980432;28;20104;-82
2022/03/16 06:01:02;;;;;;;0.87;0.87;;;;;;;;;;4977777;28;20792;-81
2022/03/16 06:03:28;;;;;;;0.50;0.50;;;;;;;;;;4983901;28;20117;-79
2022/03/16 06:05:54;;;;;;;1.87;1.17;;;;;;;;;;4984380;28;20042;-87
2022/03/16 06:08:20;;;;;;;0.40;0.40;;;;;;;;;;4983413;28;20070;-84
2022/03/16 06:10:46;;;;;;;0.87;0.87;;;;;;;;;;4982091;28;20081;-83
2022/03/16 06:13:12;;;;;;;0.20;0.20;;;;;;;;;;4981701;28;20400;-80
2022/03/16 06:15:41;;;;;;;0.27;0.27;;;;;;;;;;4982293;28;20077;-79
2022/03/16 06:18:07;;;;;;;0.38;0.22;;;;;;;;;;4982948;28;20037;-79
2022/03/16 06:20:34;;;;;;;0.38;0.35;;;;;;;;;;4983397;28;20057;-79
2022/03/16 06:23:00;;;;;;;;;;;;;;;;;;4982506;28;20041;-80
2022/03/16 06:25:26;;;;;;;7.70;1.60;;;;;;;;;;4979218;28;19913;-79
2022/03/16 06:27:52;;;;;;;0.63;0.63;;;;;;;;;;4981374;28;20105;-79
2022/03/16 06:30:18;;;;;;;0.25;0.25;;;;;;;;;;4981382;28;20034;-80
2022/03/16 06:32:47;;;;;;;1.33;1.23;;;;;;;;;;4976540;28;20035;-80
2022/03/16 06:35:14;;;;;;;0.20;0.20;;;;;;;;;;4982041;28;20050;-80
2022/03/16 06:37:41;;;;;;;0.35;0.35;;;;;;;;;;4977893;28;20034;-81
2022/03/16 06:40:07;;;;;;;0.17;0.17;;;;;;;;;;4982229;28;20041;-81
2022/03/16 06:42:33;;;;;;;0.52;0.52;;;;;;;;;;4980898;28;20076;-82
2022/03/16 06:44:59;;;;;;;0.87;0.70;;;;;;;;;;4981831;28;20042;-80
2022/03/16 06:47:25;;;;;;;0.47;0.47;;;;;;;;;;4973934;28;20293;-82
2022/03/16 06:49:51;;;;;;;1.08;0.98;;;;;;;;;;4981234;28;20875;-87
2022/03/16 06:52:18;;;;;;;4.57;0.73;;;;;;;;;;4983208;28;20046;-86
2022/03/16 06:54:44;;;;;;;0.75;0.75;;;;;;;;;;4983521;28;20801;-84
2022/03/16 06:57:11;;;;;;;0.53;0.53;;;;;;;;;;4980233;28;20318;-87
2022/03/16 06:59:37;;;;;;;0.38;0.38;;;;;;;;;;4983459;28;20117;-85
2022/03/16 07:02:03;;;;;;;0.10;0.10;;;;;;;;;;4985450;28;20038;-84
2022/03/16 07:04:30;;;;;;;0.17;0.17;;;;;;;;;;4982052;28;20041;-83
2022/03/16 07:06:56;;;;;;;2.05;0.75;;;;;;;;;;4973690;28;20290;-83
2022/03/16 07:09:22;;;;;;;0.10;0.10;;;;;;;;;;4970116;28;20057;-84
2022/03/16 07:11:48;;;;;;;0.40;0.30;;;;;;;;;;4975350;28;20042;-83
2022/03/16 07:14:35;;;;;;;0.10;0.10;;;;;;;;;;4970428;28;20035;-82
2022/03/16 07:17:02;;;;;;;0.17;0.17;;;;;;;;;;4972070;28;20876;-81
2022/03/16 07:19:28;;;;;;;0.30;0.30;;;;;;;;;;4981517;28;20033;-82
2022/03/16 07:21:56;;;;;;;0.28;0.28;;;;;;;;;;4982527;28;20121;-82
2022/03/16 07:24:22;;;;;;;0.10;0.10;;;;;;;;;;4981316;28;20113;-83
2022/03/16 07:26:48;;;;;;;0.35;0.35;;;;;;;;;;4971483;28;20039;-81
2022/03/16 07:29:14;;;;;;;0.63;0.63;;;;;;;;;;4985236;28;20057;-82
2022/03/16 07:31:40;;;;;;;0.17;0.17;;;;;;;;;;4982771;28;20113;-82
2022/03/16 07:34:06;;;;;;;0.20;0.20;;;;;;;;;;4982809;28;20463;-82
2022/03/16 07:36:34;;;;;;;0.10;0.10;;;;;;;;;;4980319;28;20041;-81
2022/03/16 07:39:00;;;;;;;2.85;0.90;;;;;;;;;;4978360;28;20157;-80
2022/03/16 07:41:26;;;;;;;0.80;0.80;;;;;;;;;;4974955;28;20023;-84
2022/03/16 07:43:52;;;;;;;21.07;0.87;;;;;;;;;;4980438;28;20146;-87
2022/03/16 07:46:18;;;;;;;6.93;2.40;;;;;;;;;;4982119;28;20030;-86
2022/03/16 07:48:45;;;;;;;0.40;0.40;;;;;;;;;;4979258;28;20113;-87
2022/03/16 07:51:12;;;;;;;0.40;0.40;;;;;;;;;;4980083;28;20026;-87
2022/03/16 07:53:39;;;;;;;2.90;1.75;;;;;;;;;;4982592;28;20026;-86
2022/03/16 07:56:05;;;;;;;0.60;0.60;;;;;;;;;;4982300;28;20109;-87
2022/03/16 07:58:31;;;;;;;0.88;0.73;;;;;;;;;;4977597;28;20062;-87
2022/03/16 08:00:57;;;;;;;2.13;1.17;;;;;;;;;;4979104;28;20072;-87
2022/03/16 08:03:23;;;;;;;0.17;0.17;;;;;;;;;;4979851;28;20133;-87
2022/03/16 08:05:49;;;;;;;0.10;0.10;;;;;;;;;;4980505;28;20030;-87
2022/03/16 08:08:17;;;;;;;0.57;0.30;;;;;;;;;;4976428;28;20046;-87
2022/03/16 08:10:43;;;;;;;1.45;1.35;;;;;;;;;;4977156;28;20039;-86
2022/03/16 08:13:09;;;;;;;2.37;1.60;;;;;;;;;;4970308;28;20042;-87
2022/03/16 08:15:35;;;;;;;0.30;0.30;;;;;;;;;;4974020;28;20034;-87
2022/03/16 08:18:01;;;;;;;0.10;0.10;;;;;;;;;;4981074;28;20399;-87
2022/03/16 08:20:27;;;;;;;0.77;0.60;;;;;;;;;;4984003;28;20037;-87
2022/03/16 08:22:56;;;;;;;0.73;0.73;;;;;;;;;;4983591;28;20061;-87
2022/03/16 08:25:23;;;;;;;2.97;0.63;;;;;;;;;;4979935;28;20529;-87
2022/03/16 08:27:49;;;;;;;0.30;0.30;;;;;;;;;;4976748;28;20038;-86
2022/03/16 08:30:18;;;;;;;0.70;0.70;;;;;;;;;;4981335;28;20769;-87
2022/03/16 08:32:44;;;;;;;5.78;1.65;;;;;;;;;;4974380;28;20026;-87
2022/03/16 08:35:11;;;;;;;6.73;1.90;;;;;;;;;;4984570;28;20517;-87
2022/03/16 08:37:37;;;;;;;17.33;2.38;;;;;;;;;;4975622;28;20038;-88
2022/03/16 08:40:04;;;;;;;1.27;0.47;;;;;;;;;;4982167;28;20615;-87
2022/03/16 08:42:30;;;;;;;0.40;0.40;;;;;;;;;;4981782;28;20521;-87
2022/03/16 08:44:56;;;;;;;1.70;1.10;;;;;;;;;;4973643;28;20204;-87
2022/03/16 08:47:22;;;;;;;1.27;1.03;;;;;;;;;;4982648;28;20304;-87
2022/03/16 08:49:50;;;;;;;0.60;0.60;;;;;;;;;;4981840;28;20281;-87
2022/03/16 08:52:16;;;;;;;0.10;0.10;;;;;;;;;;4980520;28;20026;-87
2022/03/16 08:54:43;;;;;;;0.70;0.70;;;;;;;;;;4981559;28;20066;-87
2022/03/16 08:57:09;;;;;;;0.20;0.20;;;;;;;;;;4976217;28;20111;-87
2022/03/16 08:59:36;;;;;;;0.10;0.10;;;;;;;;;;4982085;28;20033;-87
2022/03/16 09:02:02;;;;;;;2.28;1.08;;;;;;;;;;4983437;28;20054;-87
2022/03/16 09:04:28;;;;;;;5.55;0.65;;;;;;;;;;4981652;28;20027;-87
2022/03/16 09:06:54;;;;;;;0.40;0.40;;;;;;;;;;4982109;28;20042;-87
2022/03/16 09:09:20;;;;;;;0.57;0.57;;;;;;;;;;4979634;28;20309;-87
2022/03/16 09:11:47;;;;;;;0.35;0.35;;;;;;;;;;4979658;28;20027;-86
2022/03/16 09:14:13;;;;;;;1.58;0.82;;;;;;;;;;4982612;28;20046;-86
2022/03/16 09:16:40;;;;;;;24.90;0.63;;;;;;;;;;4977955;28;20034;-86
2022/03/16 09:19:06;;;;;;;3.23;1.30;;;;;;;;;;4977951;28;20827;-87
2022/03/16 09:21:32;;;;;;;0.00;0.00;;;;;;;;;;4980533;28;20292;-87
2022/03/16 09:23:59;;;;;;;0.28;0.25;;;;;;;;;;4977820;28;20030;-86
2022/03/16 09:26:25;;;;;;;1.20;1.02;;;;;;;;;;4979720;28;20038;-87
2022/03/16 09:28:52;;;;;;;0.35;0.35;;;;;;;;;;4981041;28;20092;-88
2022/03/16 09:31:20;;;;;;;2.20;1.08;;;;;;;;;;4975170;28;20109;-86
2022/03/16 09:33:46;;;;;;;1.65;1.38;;;;;;;;;;4976067;28;20486;-87
2022/03/16 09:36:12;;;;;;;0.47;0.47;;;;;;;;;;4980350;28;20064;-87
2022/03/16 09:38:38;;;;;;;0.08;0.08;;;;;;;;;;4978676;28;20031;-87
2022/03/16 09:41:04;;;;;;;0.30;0.30;;;;;;;;;;4983113;28;20126;-87
2022/03/16 09:43:38;;;;;;;0.60;0.52;;;;;;;;;;4981218;28;20402;-87
2022/03/16 09:46:07;;;;;;;0.38;0.38;;;;;;;;;;4980580;28;20018;-87
2022/03/16 09:48:33;;;;;;;0.20;0.20;;;;;;;;;;4978061;28;20042;-87
2022/03/16 09:51:00;;;;;;;0.15;0.15;;;;;;;;;;4975108;28;20031;-87
2022/03/16 09:53:26;;;;;;;2.38;0.55;;;;;;;;;;4982715;28;20798;-87
2022/03/16 09:55:56;;;;;;;0.20;0.20;;;;;;;;;;4975512;28;20046;-87
2022/03/16 09:58:22;;;;;;;0.10;0.10;;;;;;;;;;4976771;28;20038;-87
2022/03/16 10:00:48;;;;;;;0.73;0.53;;;;;;;;;;4973083;28;20032;-87
2022/03/16 10:03:15;;;;;;;0.65;0.65;;;;;;;;;;4979945;28;20038;-87
2022/03/16 10:05:41;;;;;;;0.03;0.03;;;;;;;;;;4972542;28;20042;-87
2022/03/16 10:08:08;;;;;;;0.10;0.10;;;;;;;;;;4973999;28;20061;-88
2022/03/16 10:13:23;;;;;;;1.30;0.38;;;;;;;;;;4970302;28;20139;-86
2022/03/16 10:15:55;;;;;;;1.45;1.00;;;;;;;;;;4984359;28;20026;-87
2022/03/16 10:18:22;;;;;;;2.85;0.80;;;;;;;;;;4976446;28;20030;-88
2022/03/16 10:20:50;;;;;;;1.55;1.17;;;;;;;;;;4983075;28;20026;-87
2022/03/16 10:23:20;;;;;;;13.32;1.23;;;;;;;;;;4978056;28;20014;-87
2022/03/16 10:25:51;;;;;;;2.42;1.40;;;;;;;;;;4969275;28;20035;-88
2022/03/16 10:28:18;;;;;;;1.35;1.25;;;;;;;;;;4980519;28;20121;-87
2022/03/16 10:30:57;;;;;;;0.60;0.55;;;;;;;;;;4984946;28;20053;-87
2022/03/16 10:33:29;;;;;;;0.65;0.38;;;;;;;;;;4975093;28;20114;-87
2022/03/16 10:36:26;;;;;;;0.10;0.10;;;;;;;;;;4978701;28;20498;-86
2022/03/16 10:38:53;;;;;;;0.68;0.68;;;;;;;;;;4972127;28;20387;-87
2022/03/16 10:47:10;;;;;;;4.65;0.65;;;;;;;;;;4975004;28;20045;-87
2022/03/16 10:49:38;;;;;;;3.97;1.23;;;;;;;;;;4977971;28;20175;-87
2022/03/16 10:52:05;;;;;;;0.10;0.10;;;;;;;;;;4976367;28;20529;-87
2022/03/16 10:54:33;;;;;;;0.43;0.32;;;;;;;;;;4970202;28;20128;-87
2022/03/16 10:57:01;;;;;;;4.72;1.52;;;;;;;;;;4972883;28;20434;-87
2022/03/16 10:59:30;;;;;;;0.52;0.52;;;;;;;;;;4972410;28;20089;-86
2022/03/16 11:02:16;;;;;;;0.30;0.30;;;;;;;;;;4976338;28;20084;-87
2022/03/16 11:04:47;;;;;;;0.50;0.50;;;;;;;;;;4972091;28;20073;-87
2022/03/16 11:07:14;;;;;;;6.65;1.20;;;;;;;;;;4973424;28;20041;-88
2022/03/16 11:09:41;;;;;;;;;;;;;;;;;;4976652;28;20054;-89
2022/03/16 11:14:53;;;;;;;0.10;0.10;;;;;;;;;;4972490;28;20112;-89
2022/03/16 11:17:20;;;;;;;2.53;1.30;;;;;;;;;;4976035;28;20041;-88
2022/03/16 11:19:48;;;;;;;0.20;0.20;;;;;;;;;;4971755;28;20035;-87
2022/03/16 11:22:20;;;;;;;0.85;0.63;;;;;;;;;;4978072;28;20510;-88
2022/03/16 11:24:48;;;;;;;0.38;0.38;;;;;;;;;;4974904;28;20026;-88
2022/03/16 11:27:34;;;;;;;0.60;0.43;;;;;;;;;;4977311;28;20041;-88
2022/03/16 11:30:15;;;;;;;0.47;0.47;;;;;;;;;;4969230;28;20507;-89
2022/03/16 11:32:46;;;;;;;0.35;0.35;;;;;;;;;;4979076;28;20030;-88
2022/03/16 11:35:17;;;;;;;0.90;0.90;;;;;;;;;;4980249;28;20066;-88
2022/03/16 11:37:45;;;;;;;1.85;0.80;;;;;;;;;;4982834;28;20125;-88
2022/03/16 11:40:13;;;;;;;0.10;0.10;;;;;;;;;;4983515;28;20497;-89
2022/03/16 11:42:40;;;;;;;0.65;0.65;;;;;;;;;;4976601;28;20034;-89
2022/03/16 11:45:41;;;;;;;0.75;0.50;;;;;;;;;;4974385;28;20035;-90
2022/03/16 11:48:25;;;;;;;0.17;0.17;;;;;;;;;;4936568;28;20046;-89
2022/03/16 11:51:24;;;;;;;1.55;1.42;;;;;;;;;;4962409;28;20279;-89
2022/03/16 11:53:51;;;;;;;0.82;0.77;;;;;;;;;;4864244;29;20052;-89
2022/03/16 11:56:20;;;;;;;0.10;0.10;;;;;;;;;;4883054;29;20041;-88
2022/03/16 11:58:47;;;;;;;0.13;0.13;;;;;;;;;;4877649;29;20044;-89
2022/03/16 12:01:24;;;;;;;4.63;0.45;;;;;;;;;;4886293;29;20041;-88
2022/03/16 12:03:50;;;;;;;;;;;;;;;;;;4883599;29;20048;-89
2022/03/16 12:06:19;;;;;;;0.10;0.10;;;;;;;;;;4872714;29;19916;-89
2022/03/16 12:08:51;;;;;;;0.28;0.10;;;;;;;;;;4882851;29;20049;-89
2022/03/16 12:14:06;;;;;;;0.20;0.20;;;;;;;;;;4886986;29;20086;-89
2022/03/16 12:16:44;;;;;;;0.13;0.13;;;;;;;;;;4884017;29;20049;-89
2022/03/16 12:19:31;;;;;;;0.52;0.52;;;;;;;;;;4883930;29;20033;-89
2022/03/16 12:21:58;;;;;;;0.68;0.50;;;;;;;;;;4886916;29;20037;-88
2022/03/16 12:30:05;;;;;;;0.10;0.10;;;;;;;;;;4968320;28;20114;-89
2022/03/16 12:32:36;;;;;;;0.10;0.10;;;;;;;;;;4983254;28;20061;-88
2022/03/16 12:35:04;;;;;;;0.28;0.28;;;;;;;;;;4984695;28;20430;-89
2022/03/16 12:37:30;;;;;;;0.30;0.30;;;;;;;;;;4982474;28;20033;-89
2022/03/16 12:39:56;;;;;;;0.20;0.20;;;;;;;;;;4972858;28;20031;-89
2022/03/16 12:42:31;;;;;;;2.03;0.93;;;;;;;;;;4974106;28;20957;-90
2022/03/16 12:45:03;;;;;;;0.93;0.75;;;;;;;;;;4974376;28;20026;-89
2022/03/16 12:47:31;;;;;;;0.32;0.32;;;;;;;;;;4981996;28;20083;-88
2022/03/16 12:50:01;;;;;;;1.20;0.98;;;;;;;;;;4982326;28;20042;-89
2022/03/16 12:52:27;;;;;;;0.00;0.00;;;;;;;;;;4975698;28;20034;-87
2022/03/16 12:54:56;;;;;;;0.38;0.38;;;;;;;;;;4973134;28;20034;-87
2022/03/16 12:57:22;;;;;;;0.08;0.08;;;;;;;;;;4971342;28;20096;-88
2022/03/16 12:59:53;;;;;;;2.30;1.27;;;;;;;;;;4967820;28;20185;-87
2022/03/16 13:02:24;;;;;;;0.40;0.40;;;;;;;;;;4970095;28;20034;-87
2022/03/16 13:04:52;;;;;;;0.20;0.20;;;;;;;;;;4983615;28;20066;-85
2022/03/16 13:07:19;;;;;;;5.35;1.58;;;;;;;;;;4974417;28;20502;-85
2022/03/16 13:09:45;;;;;;;0.60;0.40;;;;;;;;;;4969954;28;20054;-84
2022/03/16 13:12:12;;;;;;;6.88;0.38;;;;;;;;;;4969716;28;20050;-84
2022/03/16 13:14:47;;;;;;;0.40;0.40;;;;;;;;;;4968697;28;20061;-84
2022/03/16 13:17:16;;;;;;;62.92;59.00;;;;;;;;;;4972354;28;20436;-82
2022/03/16 13:19:44;;;;;;;0.40;0.40;;;;;;;;;;4974853;28;20066;-84
2022/03/16 13:22:16;;;;;;;0.30;0.30;;;;;;;;;;4980237;28;20022;-84
2022/03/16 13:24:45;;;;;;;0.20;0.20;;;;;;;;;;4976763;28;20214;-84
2022/03/16 13:27:12;;;;;;;0.10;0.10;;;;;;;;;;4968343;28;20566;-83
2022/03/16 13:29:44;;;;;;;0.10;0.10;;;;;;;;;;4975993;28;20093;-84
2022/03/16 13:32:10;;;;;;;0.10;0.10;;;;;;;;;;4971094;28;20023;-83
2022/03/16 13:34:40;;;;;;;0.10;0.10;;;;;;;;;;4977781;28;20030;-85
2022/03/16 13:37:25;;;;;;;0.20;0.20;;;;;;;;;;4977342;28;20058;-84
2022/03/16 13:39:58;;;;;;;0.20;0.20;;;;;;;;;;4975725;28;20034;-83
2022/03/16 13:42:28;;;;;;;0.17;0.17;;;;;;;;;;4970762;28;20124;-84
2022/03/16 13:44:54;;;;;;;0.10;0.10;;;;;;;;;;4977907;28;20034;-84
2022/03/16 13:47:21;;;;;;;0.10;0.10;;;;;;;;;;4969401;28;20041;-84
2022/03/16 13:49:51;;;;;;;0.10;0.10;;;;;;;;;;4977032;28;20030;-84
2022/03/16 13:52:20;;;;;;;0.00;0.00;;;;;;;;;;4978506;28;20497;-84
2022/03/16 13:54:47;;;;;;;0.00;0.00;;;;;;;;;;4979125;28;20030;-86
2022/03/16 13:57:14;;;;;;;0.00;0.00;;;;;;;;;;4983146;28;20026;-87
2022/03/16 13:59:41;;;;;;;0.03;0.03;;;;;;;;;;4977920;28;20085;-87
2022/03/16 14:02:20;;;;;;;0.10;0.10;;;;;;;;;;4983863;28;20514;-87
2022/03/16 14:04:46;;;;;;;0.10;0.10;;;;;;;;;;4974028;28;20576;-86
2022/03/16 14:07:12;;;;;;;;;;;;;;;;;;4981771;28;20429;-87
2022/03/16 14:09:43;;;;;;;0.00;0.00;;;;;;;;;;4981024;28;20432;-87
2022/03/16 14:12:10;;;;;;;0.00;0.00;;;;;;;;;;4981800;28;20528;-86
2022/03/16 14:14:37;;;;;;;0.00;0.00;;;;;;;;;;4974389;28;20031;-87
2022/03/16 14:17:03;;;;;;;;;;;;;;;;;;4976022;28;20113;-87
2022/03/16 14:19:31;;;;;;;0.00;0.00;;;;;;;;;;4981589;28;20507;-87
2022/03/16 14:21:58;;;;;;;0.00;0.00;;;;;;;;;;4982759;28;20030;-87
2022/03/16 14:24:25;;;;;;;0.00;0.00;;;;;;;;;;4980581;28;20668;-87
2022/03/16 14:26:52;;;;;;;0.00;0.00;;;;;;;;;;4980887;28;20062;-87
2022/03/16 14:29:19;;;;;;;0.00;0.00;;;;;;;;;;4984780;28;20045;-87
2022/03/16 14:31:46;;;;;;;1090.55;624.35;;;;;;;;;;4973255;28;20118;-87
2022/03/16 14:34:12;;;;;;;282.00;266.65;;;;;;;;;;4979849;28;20030;-87
2022/03/16 14:36:39;;;;;;;9.55;9.07;;;;;;;;;;4979227;28;20875;-87
2022/03/16 14:39:05;;;;;;;0.00;0.00;;;;;;;;;;4974390;28;20031;-87
2022/03/16 14:41:31;;;;;;;0.00;0.00;;;;;;;;;;4977305;28;20117;-87
2022/03/16 14:43:57;;;;;;;0.00;0.00;;;;;;;;;;4981607;28;20062;-87
2022/03/16 14:46:23;;;;;;;0.00;0.00;;;;;;;;;;4970376;28;20049;-87
2022/03/16 14:48:49;;;;;;;302.88;272.50;;;;;;;;;;4977268;28;20312;-87
2022/03/16 14:51:15;;;;;;;1.03;0.73;;;;;;;;;;4980824;28;20405;-87
2022/03/16 14:53:41;;;;;;;7.83;0.97;;;;;;;;;;4970053;28;20293;-87
2022/03/16 14:56:07;;;;;;;0.30;0.30;;;;;;;;;;4972850;28;20445;-84
2022/03/16 14:58:33;;;;;;;0.10;0.10;;;;;;;;;;4970834;28;20160;-83
2022/03/16 15:00:59;;;;;;;19.67;2.50;;;;;;;;;;4970735;28;20041;-84
2022/03/16 15:03:26;;;;;;;0.60;0.60;;;;;;;;;;4969260;28;20038;-83